Time;durP1;ratioP1;P1;durP2;ratioP2;P2;SDS_P1;SDS_P2;PMS_P1;PMS_P2;Temp;Humidity;BMP_temperature;BMP_pressure;BME280_temperature;BME280_humidity;BME280_pressure;Samples;Min_cycle;Max_cycle;Signal;HPM_P1;HPM_P2
2022/12/26 09:12:24;;;;;;;1.07;0.53;;;;;;;-145.06;100.00;60892.56;5894063;23;20788;-92
2022/12/26 12:21:34;;;;;;;2.47;0.70;;;;;;;-145.06;100.00;60892.56;5915557;23;20042;-94
2022/12/26 12:25:47;;;;;;;;;;;;;;;;;;;;;
2022/12/26 12:29:11;;;;;;;;;;;;;;;;;;;;;
2022/12/26 12:35:44;;;;;;;1.02;0.70;;;;;;;-145.06;100.00;60892.56;5787756;23;20019;-93
2022/12/26 12:42:27;;;;;;;2.20;0.70;;;;;;;-145.06;100.00;60892.56;5843634;23;20016;-92
2022/12/26 12:49:30;;;;;;;1.50;0.60;;;;;;;-145.06;100.00;60892.56;5800502;23;20004;-92
2022/12/26 13:00:34;;;;;;;2.22;0.52;;;;;;;-145.06;100.00;60892.56;5771950;24;20005;-93
2022/12/26 14:34:57;;;;;;;0.47;0.40;;;;;;;-145.06;100.00;60892.56;5929361;23;20254;-91
2022/12/26 15:16:05;;;;;;;;;;;;;;;;;;;;;
2022/12/26 15:58:27;;;;;;;0.95;0.68;;;;;;;-145.06;100.00;60892.56;5917202;23;20025;-91
2022/12/26 16:01:09;;;;;;;1.73;0.60;;;;;;;-145.06;100.00;60892.56;5905080;23;20307;-91
2022/12/26 16:03:54;;;;;;;1.95;0.60;;;;;;;-145.06;100.00;60892.56;5902092;23;20057;-89
2022/12/26 16:07:06;;;;;;;1.67;0.80;;;;;;;-145.06;100.00;60892.56;5903836;23;19993;-91
2022/12/26 16:09:48;;;;;;;2.58;0.70;;;;;;;-145.06;100.00;60892.56;5900464;23;20010;-90
2022/12/26 16:12:34;;;;;;;1.52;0.60;;;;;;;-145.06;100.00;60892.56;5901931;23;20010;-90
2022/12/26 16:15:15;;;;;;;2.25;0.65;;;;;;;-145.06;100.00;60892.56;5901073;23;20010;-91
2022/12/26 16:18:15;;;;;;;3.10;0.80;;;;;;;-145.06;100.00;60892.56;5910425;23;19998;-91
2022/12/26 16:23:57;;;;;;;1.55;0.63;;;;;;;-145.06;100.00;60892.56;5929982;23;20037;-91
2022/12/26 16:26:42;;;;;;;0.93;0.70;;;;;;;-145.06;100.00;60892.56;5901441;23;20037;-92
2022/12/26 16:29:21;;;;;;;1.25;0.60;;;;;;;-145.06;100.00;60892.56;5899790;23;20006;-90
2022/12/26 16:32:05;;;;;;;1.63;0.57;;;;;;;-145.06;100.00;60892.56;5898826;23;20029;-90
2022/12/26 16:34:45;;;;;;;1.13;0.60;;;;;;;-145.06;100.00;60892.56;5900961;23;20005;-92
2022/12/26 16:37:25;;;;;;;0.80;0.47;;;;;;;-145.06;100.00;60892.56;5900921;23;20061;-90
2022/12/26 16:40:06;;;;;;;1.33;0.60;;;;;;;-145.06;100.00;60892.56;5897459;23;20005;-92
2022/12/26 16:43:08;;;;;;;1.70;0.75;;;;;;;-145.06;100.00;60892.56;5902244;23;20018;-91
2022/12/26 16:46:10;;;;;;;1.73;0.68;;;;;;;-145.06;100.00;60892.56;5901759;23;20034;-91
2022/12/26 16:49:45;;;;;;;1.63;0.80;;;;;;;-145.06;100.00;60892.56;5903082;23;20009;-91
2022/12/26 16:52:37;;;;;;;2.25;0.70;;;;;;;-145.06;100.00;60892.56;5801208;23;20005;-91
2022/12/26 16:55:32;;;;;;;2.75;1.00;;;;;;;9.38;100.00;60892.56;5898524;23;20018;-90
2022/12/26 16:58:22;;;;;;;1.83;0.93;;;;;;;-145.06;100.00;60892.56;5906963;23;20014;-91
2022/12/26 17:01:08;;;;;;;2.97;0.90;;;;;;;-145.06;100.00;60892.56;5919756;23;20002;-93
2022/12/26 17:04:01;;;;;;;2.05;0.90;;;;;;;-145.06;100.00;60892.56;5922415;23;20009;-92
2022/12/26 17:06:52;;;;;;;2.33;0.80;;;;;;;-145.06;100.00;60892.56;5920220;23;20005;-92
2022/12/26 17:09:40;;;;;;;1.80;0.93;;;;;;;-145.06;100.00;60892.56;5921005;23;20002;-92
2022/12/26 17:12:52;;;;;;;2.55;1.00;;;;;;;-145.06;100.00;60892.56;5923549;23;20014;-90
2022/12/26 17:16:04;;;;;;;3.78;0.80;;;;;;;-145.06;100.00;60892.56;5920430;23;20010;-91
2022/12/26 17:18:49;;;;;;;1.15;0.85;;;;;;;-145.06;100.00;60892.56;5924118;23;20009;-91
2022/12/26 17:21:30;;;;;;;4.13;1.10;;;;;;;-145.06;100.00;60892.56;5921021;23;20037;-93
2022/12/26 17:24:39;;;;;;;2.53;0.85;;;;;;;-145.06;100.00;60892.56;5918616;23;20010;-91
2022/12/26 17:27:25;;;;;;;1.90;1.10;;;;;;;-145.06;100.00;60892.56;5917904;23;20006;-91
2022/12/26 17:30:26;;;;;;;4.00;1.27;;;;;;;-145.06;100.00;60892.56;5919363;23;20006;-91
2022/12/26 17:33:18;;;;;;;4.13;1.65;;;;;;;-145.06;100.00;60892.56;5919344;23;20002;-91
2022/12/26 17:36:06;;;;;;;4.63;1.70;;;;;;;-145.06;100.00;60892.56;5918887;23;20002;-90
2022/12/26 17:38:45;;;;;;;3.67;1.35;;;;;;;-145.06;100.00;60892.56;5919550;23;20009;-90
2022/12/26 17:41:27;;;;;;;4.53;1.70;;;;;;;-145.06;100.00;60892.56;5921926;23;20010;-91
2022/12/26 17:44:37;;;;;;;3.90;1.35;;;;;;;-145.06;100.00;60892.56;5920477;23;20009;-91
2022/12/26 17:47:19;;;;;;;;;;;;;;;-145.06;100.00;60892.56;5927056;23;20037;-92
2022/12/26 17:49:58;;;;;;;1.77;1.13;;;;;;;-145.06;100.00;60892.56;5922805;23;19908;-91
2022/12/26 17:52:37;;;;;;;3.25;0.90;;;;;;;-145.06;100.00;60892.56;5919429;23;20013;-91
2022/12/26 17:55:40;;;;;;;3.70;1.52;;;;;;;-145.06;100.00;60892.56;5922555;23;20018;-91
2022/12/26 17:58:31;;;;;;;3.85;1.40;;;;;;;-145.06;100.00;60892.56;5918867;23;20013;-92
2022/12/26 18:01:26;;;;;;;3.55;1.20;;;;;;;-145.06;100.00;60892.56;5917791;23;20006;-92
2022/12/26 18:04:08;;;;;;;3.35;1.35;;;;;;;-145.06;100.00;60892.56;5916056;23;20010;-91
2022/12/26 18:06:47;;;;;;;2.40;1.08;;;;;;;-145.06;100.00;60892.56;5916957;23;20361;-91
2022/12/26 18:09:27;;;;;;;2.60;1.40;;;;;;;-145.06;100.00;60892.56;5919447;23;20061;-92
2022/12/26 18:12:06;;;;;;;;;;;;;;;-145.06;100.00;60892.56;5919849;23;20018;-91
2022/12/26 18:14:45;;;;;;;2.33;0.98;;;;;;;-145.06;100.00;60892.56;5920650;23;19940;-92
2022/12/26 18:17:24;;;;;;;4.82;1.50;;;;;;;-145.06;100.00;60892.56;5921163;23;20010;-90
2022/12/26 18:20:05;;;;;;;3.53;1.35;;;;;;;-145.06;100.00;60892.56;5928712;23;20428;-91
2022/12/26 18:22:46;;;;;;;2.70;1.20;;;;;;;-145.06;100.00;60892.56;5922293;23;20085;-91
2022/12/26 18:25:26;;;;;;;2.58;1.77;;;;;;;-145.06;100.00;60892.56;5921940;23;20006;-91
2022/12/26 18:28:29;;;;;;;3.75;1.80;;;;;;;-145.06;100.00;60892.56;5919913;23;20010;-91
2022/12/26 18:31:17;;;;;;;3.10;1.67;;;;;;;-145.06;100.00;60892.56;5922192;23;20010;-90
2022/12/26 18:34:03;;;;;;;1.33;1.10;;;;;;;-145.06;100.00;60892.56;5920507;23;20014;-92
2022/12/26 18:36:50;;;;;;;1.83;1.38;;;;;;;-145.06;100.00;60892.56;5919536;23;20010;-91
2022/12/26 18:39:40;;;;;;;2.60;1.38;;;;;;;-145.06;100.00;60892.56;5919586;23;20065;-91
2022/12/26 18:42:26;;;;;;;1.35;1.00;;;;;;;-145.06;100.00;60892.56;5922483;23;20014;-92
2022/12/26 18:45:08;;;;;;;1.88;1.20;;;;;;;-145.06;100.00;60892.56;5922472;23;20725;-91
2022/12/26 18:48:04;;;;;;;3.75;1.13;;;;;;;-145.06;100.00;60892.56;5920993;23;20009;-93
2022/12/26 18:50:49;;;;;;;2.55;1.10;;;;;;;-145.06;100.00;60892.56;5924037;23;20002;-92
2022/12/26 18:53:29;;;;;;;1.80;1.13;;;;;;;-145.06;100.00;60892.56;5922756;23;20006;-91
2022/12/26 18:58:28;;;;;;;1.90;0.93;;;;;;;-145.06;100.00;60892.56;5922089;23;20182;-92
2022/12/26 19:01:44;;;;;;;3.95;1.20;;;;;;;-145.06;100.00;60892.56;5904347;23;20010;-92
2022/12/26 19:05:04;;;;;;;1.88;0.90;;;;;;;-145.06;100.00;60892.56;5871255;23;20306;-92
2022/12/26 19:07:49;;;;;;;2.08;0.98;;;;;;;-145.06;100.00;60892.56;5785007;24;20012;-90
2022/12/26 19:10:55;;;;;;;3.60;0.90;;;;;;;-145.06;100.00;60892.56;5902535;23;20369;-90
2022/12/26 19:13:43;;;;;;;1.65;0.80;;;;;;;-145.06;100.00;60892.56;5902468;23;20010;-91
2022/12/26 19:16:26;;;;;;;0.98;0.70;;;;;;;-145.06;100.00;60892.56;5902734;23;20010;-91
2022/12/26 19:19:42;;;;;;;2.10;0.88;;;;;;;-145.06;100.00;60892.56;5903526;23;20014;-92
2022/12/26 19:22:21;;;;;;;2.10;0.80;;;;;;;-145.06;100.00;60892.56;5901059;23;20054;-89
2022/12/26 19:25:00;;;;;;;1.30;0.90;;;;;;;-145.06;100.00;60892.56;5901094;23;20085;-91
2022/12/26 19:27:45;;;;;;;2.65;0.90;;;;;;;-145.06;100.00;60892.56;5903858;23;20242;-92
2022/12/26 19:34:24;;;;;;;3.25;0.80;;;;;;;-145.06;100.00;60892.56;5740789;24;20005;-93
2022/12/26 19:37:07;;;;;;;2.45;1.88;;;;;;;-145.06;100.00;60892.56;5725118;23;20007;-91
2022/12/26 19:44:05;;;;;;;7.05;4.15;;;;;;;-145.06;100.00;60892.56;5902906;23;20010;-91
2022/12/26 19:46:46;;;;;;;6.28;2.88;;;;;;;-145.06;100.00;60892.56;5792373;23;20011;-91
2022/12/26 19:52:00;;;;;;;4.82;1.80;;;;;;;-145.06;100.00;60892.56;5933008;23;19916;-92
2022/12/26 19:54:39;;;;;;;3.00;1.23;;;;;;;-145.06;100.00;60892.56;5902996;23;20006;-91
2022/12/26 19:57:22;;;;;;;2.90;1.33;;;;;;;-145.06;100.00;60892.56;5901370;23;20014;-90
2022/12/26 20:00:11;;;;;;;3.72;1.10;;;;;;;-145.06;100.00;60892.56;5899907;23;20010;-91
2022/12/26 20:02:51;;;;;;;36.20;18.20;;;;;;;-145.06;100.00;60892.56;5902547;23;20448;-92
2022/12/26 20:05:41;;;;;;;29.10;15.50;;;;;;;-145.06;100.00;60892.56;5902076;23;20014;-91
2022/12/26 20:08:26;;;;;;;16.20;9.02;;;;;;;-145.06;100.00;60892.56;5900860;23;20010;-91
2022/12/26 20:11:17;;;;;;;12.13;6.38;;;;;;;-145.06;100.00;60892.56;5902388;23;20006;-90
2022/12/26 20:13:59;;;;;;;9.70;4.05;;;;;;;-145.06;100.00;60892.56;5902223;23;20013;-90
2022/12/26 20:16:41;;;;;;;6.10;3.10;;;;;;;-145.06;100.00;60892.56;5901830;23;20033;-90
2022/12/26 20:19:22;;;;;;;4.28;2.45;;;;;;;-145.06;100.00;60892.56;5915813;23;20010;-90
2022/12/26 20:22:37;;;;;;;3.08;2.03;;;;;;;-145.06;100.00;60892.56;5916468;23;20053;-90
2022/12/26 20:25:17;;;;;;;4.95;2.58;;;;;;;-145.06;100.00;60892.56;5903411;23;20005;-91
2022/12/26 20:27:58;;;;;;;3.55;2.53;;;;;;;-145.06;100.00;60892.56;5898689;23;20014;-92
2022/12/26 20:30:40;;;;;;;3.92;2.45;;;;;;;-145.06;100.00;60892.56;5901049;23;19998;-90
2022/12/26 20:33:19;;;;;;;5.13;1.83;;;;;;;-145.06;100.00;60892.56;5900209;23;20310;-91
2022/12/26 20:36:07;;;;;;;3.30;1.98;;;;;;;-145.06;100.00;60892.56;5898880;23;20037;-91
2022/12/26 20:38:52;;;;;;;2.70;1.25;;;;;;;-145.06;100.00;60892.56;5900855;23;20005;-91
2022/12/26 20:41:32;;;;;;;2.15;1.20;;;;;;;-145.06;100.00;60892.56;5901728;23;20006;-91
2022/12/26 20:44:33;;;;;;;2.78;1.33;;;;;;;-145.06;100.00;60892.56;5901353;23;20085;-91
2022/12/26 20:47:29;;;;;;;1.63;1.00;;;;;;;-145.06;100.00;60892.56;5902810;23;20010;-91
2022/12/26 20:50:31;;;;;;;;;;;;;;;;;;;;;
2022/12/26 20:53:11;;;;;;;2.85;1.10;;;;;;;-145.06;100.00;60892.56;5930265;23;20009;-93
2022/12/26 20:56:18;;;;;;;1.25;0.68;;;;;;;-145.06;100.00;60892.56;5902089;23;20010;-92
2022/12/26 20:59:12;;;;;;;1.92;0.90;;;;;;;-145.06;100.00;60892.56;5897222;23;20338;-91
2022/12/26 21:06:17;;;;;;;2.15;0.93;;;;;;;-145.06;100.00;60892.56;5849849;23;20011;-91
2022/12/26 21:10:00;;;;;;;2.53;0.90;;;;;;;-145.06;100.00;60892.56;5862120;23;20524;-91
2022/12/26 21:14:01;;;;;;;1.00;0.80;;;;;;;-145.06;100.00;60892.56;5759004;24;20020;-93
2022/12/26 21:28:45;;;;;;;2.70;1.00;;;;;;;-145.06;100.00;60892.56;5774307;23;20464;-92
2022/12/26 21:35:25;;;;;;;1.60;0.90;;;;;;;-145.06;100.00;60892.56;5776055;23;20007;-93
2022/12/26 21:39:11;;;;;;;3.13;0.77;;;;;;;-145.06;100.00;60892.56;5766838;23;20027;-92
2022/12/26 21:42:05;;;;;;;1.77;1.02;;;;;;;-145.06;100.00;60892.56;5749612;23;20008;-91
2022/12/26 21:45:11;;;;;;;1.60;0.80;;;;;;;-145.06;100.00;60892.56;5792634;23;20016;-90
2022/12/26 21:51:11;;;;;;;1.90;1.00;;;;;;;-145.06;100.00;60892.56;5917359;23;20538;-92
2022/12/26 21:57:36;;;;;;;2.13;0.85;;;;;;;-145.06;100.00;60892.56;5933625;23;20014;-91
2022/12/26 22:00:19;;;;;;;3.33;1.30;;;;;;;-145.06;100.00;60892.56;5904003;23;20002;-91
2022/12/26 22:06:37;;;;;;;2.53;1.15;;;;;;;-145.06;100.00;60892.56;5934269;23;20010;-91
2022/12/26 22:09:47;;;;;;;1.17;0.80;;;;;;;-145.06;100.00;60892.56;5848814;23;20011;-92
2022/12/26 22:16:31;;;;;;;1.88;0.95;;;;;;;-145.06;100.00;60892.56;5928364;23;20014;-92
2022/12/26 22:36:43;;;;;;;1.63;1.00;;;;;;;-145.06;100.00;60892.56;5921326;23;19917;-91
2022/12/26 22:40:12;;;;;;;3.90;0.98;;;;;;;-145.06;100.00;60892.56;5893998;23;20037;-92
2022/12/26 22:46:16;;;;;;;2.70;1.02;;;;;;;-145.06;100.00;60892.56;5906663;23;20033;-91
2022/12/26 22:49:37;;;;;;;;;;;;;;;;;;;;;
2022/12/26 22:52:45;;;;;;;1.23;0.77;;;;;;;-145.06;100.00;60892.56;5907178;23;20014;-90
2022/12/26 22:55:53;;;;;;;2.60;1.05;;;;;;;-145.06;100.00;60892.56;5875301;23;20010;-89
2022/12/26 22:59:07;;;;;;;1.63;0.68;;;;;;;-145.06;100.00;60892.56;5888488;23;20003;-91
2022/12/26 23:02:22;;;;;;;;;;;;;;;;;;;;;
2022/12/26 23:05:05;;;;;;;2.17;0.95;;;;;;;-145.06;100.00;60892.56;5933390;23;20010;-92
2022/12/26 23:08:17;;;;;;;3.58;1.08;;;;;;;-145.06;100.00;60892.56;5923225;23;20013;-91
2022/12/26 23:11:24;;;;;;;;;;;;;;;;;;;;;
2022/12/26 23:21:57;;;;;;;;;;;;;;;;;;;;;
2022/12/26 23:25:36;;;;;;;;;;;;;;;;;;;;;
2022/12/26 23:31:43;;;;;;;;;;;;;;;;;;;;;
2022/12/26 23:34:22;;;;;;;3.75;1.00;;;;;;;-145.06;100.00;60892.56;5924995;23;20010;-90
2022/12/26 23:37:28;;;;;;;1.08;0.65;;;;;;;-145.06;100.00;60892.56;5902765;23;20025;-92
